Time;durP1;ratioP1;P1;durP2;ratioP2;P2;SDS_P1;SDS_P2;PMS_P1;PMS_P2;Temp;Humidity;BMP_temperature;BMP_pressure;BME280_temperature;BME280_humidity;BME280_pressure;Samples;Min_cycle;Max_cycle;Signal;HPM_P1;HPM_P2
2023/06/29 00:01:02;;;;;;;65.57;51.78;;;18.30;99.90;;;;;;5110157;27;20408;-39
2023/06/29 00:03:29;;;;;;;58.83;49.60;;;18.40;99.90;;;;;;5112838;27;20118;-40
2023/06/29 00:05:58;;;;;;;70.20;50.75;;;18.30;99.90;;;;;;5111968;27;20081;-40
2023/06/29 00:08:28;;;;;;;61.72;49.65;;;18.30;99.90;;;;;;5115260;27;20066;-39
2023/06/29 00:10:55;;;;;;;63.42;51.65;;;18.30;99.90;;;;;;5115092;27;20054;-39
2023/06/29 00:13:21;;;;;;;62.58;51.50;;;18.20;99.90;;;;;;5095729;27;20068;-39
2023/06/29 00:15:48;;;;;;;62.35;51.83;;;18.30;99.90;;;;;;5094311;27;20062;-40
2023/06/29 00:18:18;;;;;;;63.78;50.85;;;18.40;99.90;;;;;;5117580;27;20129;-39
2023/06/29 00:20:44;;;;;;;58.00;47.42;;;18.20;99.90;;;;;;5113877;27;20138;-39
2023/06/29 00:23:10;;;;;;;62.90;52.53;;;18.30;99.90;;;;;;5113168;27;20485;-39
2023/06/29 00:25:38;;;;;;;58.60;50.35;;;18.30;99.90;;;;;;5114005;27;20074;-40
2023/06/29 00:28:04;;;;;;;59.70;50.28;;;18.30;99.90;;;;;;5092655;27;20060;-39
2023/06/29 00:30:30;;;;;;;60.67;51.13;;;18.30;99.90;;;;;;5114957;27;20053;-39
2023/06/29 00:32:55;;;;;;;59.67;50.80;;;18.40;99.90;;;;;;5114798;27;20046;-39
2023/06/29 00:35:21;;;;;;;60.35;51.45;;;18.30;99.90;;;;;;5090406;27;20545;-39
2023/06/29 00:37:47;;;;;;;59.67;51.85;;;18.30;99.90;;;;;;5094473;27;20573;-39
2023/06/29 00:40:13;;;;;;;59.90;50.88;;;18.30;99.90;;;;;;5114580;27;20539;-40
2023/06/29 00:42:38;;;;;;;65.32;54.33;;;18.30;99.90;;;;;;5114772;27;20158;-39
2023/06/29 00:45:05;;;;;;;69.80;54.88;;;18.30;99.90;;;;;;5112415;27;20783;-39
2023/06/29 00:47:32;;;;;;;64.55;53.90;;;18.30;99.90;;;;;;5111925;27;20122;-40
2023/06/29 00:49:59;;;;;;;61.42;51.42;;;18.30;99.90;;;;;;5112412;27;20046;-40
2023/06/29 00:52:25;;;;;;;65.43;53.88;;;18.30;99.90;;;;;;5117368;27;20223;-41
2023/06/29 00:54:53;;;;;;;63.53;54.83;;;18.20;99.90;;;;;;5113939;27;20283;-39
2023/06/29 00:57:19;;;;;;;62.58;53.22;;;18.30;99.90;;;;;;5113364;27;20073;-39
2023/06/29 00:59:46;;;;;;;63.55;53.08;;;18.30;99.90;;;;;;5113992;27;20690;-40
2023/06/29 01:02:14;;;;;;;63.08;52.65;;;18.30;99.90;;;;;;5114235;27;20054;-39
2023/06/29 01:04:40;;;;;;;63.45;52.30;;;18.30;99.90;;;;;;5094378;27;20137;-39
2023/06/29 01:07:32;;;;;;;61.60;51.85;;;18.30;99.90;;;;;;5114118;27;20087;-39
2023/06/29 01:09:58;;;;;;;61.17;53.28;;;18.20;99.90;;;;;;5112071;27;20039;-39
2023/06/29 01:12:25;;;;;;;56.60;50.42;;;18.30;99.90;;;;;;5093362;27;20046;-40
2023/06/29 01:14:51;;;;;;;62.05;52.33;;;18.20;99.90;;;;;;5112812;27;20508;-40
2023/06/29 01:17:22;;;;;;;60.78;51.80;;;18.20;99.90;;;;;;5112410;27;20447;-39
2023/06/29 01:19:49;;;;;;;61.63;51.72;;;18.20;99.90;;;;;;5115399;27;20037;-40
2023/06/29 01:22:28;;;;;;;58.67;50.22;;;18.20;99.90;;;;;;5113177;27;20043;-39
2023/06/29 01:24:55;;;;;;;61.45;49.92;;;18.20;99.90;;;;;;5112748;27;20042;-39
2023/06/29 01:27:21;;;;;;;58.88;50.58;;;18.20;99.90;;;;;;5114531;27;20433;-39
2023/06/29 01:29:47;;;;;;;57.33;49.13;;;18.20;99.90;;;;;;5092764;27;20050;-39
2023/06/29 01:32:14;;;;;;;60.25;50.92;;;18.10;99.90;;;;;;5092766;27;20062;-40
2023/06/29 01:34:40;;;;;;;58.92;50.38;;;18.20;99.90;;;;;;5107070;27;20047;-39
2023/06/29 01:37:11;;;;;;;61.47;50.20;;;18.20;99.90;;;;;;5111018;27;20053;-39
2023/06/29 01:40:08;;;;;;;59.97;49.63;;;18.10;99.90;;;;;;5091000;27;20058;-40
2023/06/29 01:42:35;;;;;;;61.20;49.88;;;18.10;99.90;;;;;;5114518;27;20485;-39
2023/06/29 01:45:04;;;;;;;64.38;51.25;;;18.20;99.90;;;;;;5111458;27;20043;-40
2023/06/29 01:47:30;;;;;;;61.75;51.90;;;18.10;99.90;;;;;;5110891;27;20050;-39
2023/06/29 01:49:56;;;;;;;69.35;52.92;;;18.10;99.90;;;;;;5094206;27;20039;-40
2023/06/29 01:52:22;;;;;;;61.58;50.80;;;18.10;99.90;;;;;;5113617;27;20046;-40
2023/06/29 01:54:48;;;;;;;61.80;50.22;;;18.10;99.90;;;;;;5114219;27;20138;-39
2023/06/29 01:57:14;;;;;;;60.30;50.97;;;18.10;99.90;;;;;;5093758;27;20149;-39
2023/06/29 01:59:39;;;;;;;60.90;49.38;;;18.00;99.90;;;;;;5113091;27;20430;-40
2023/06/29 02:02:06;;;;;;;61.53;48.35;;;18.10;99.90;;;;;;5113143;27;20058;-39
2023/06/29 02:04:33;;;;;;;58.08;48.33;;;18.10;99.90;;;;;;5093550;27;20675;-39
2023/06/29 02:06:59;;;;;;;61.33;48.42;;;18.10;99.90;;;;;;5113533;27;20061;-40
2023/06/29 02:09:24;;;;;;;52.42;46.72;;;18.00;99.90;;;;;;5113258;27;20062;-39
2023/06/29 02:11:50;;;;;;;60.58;49.25;;;18.00;99.90;;;;;;5123008;27;20054;-39
2023/06/29 02:14:17;;;;;;;54.65;48.13;;;18.00;99.90;;;;;;5117384;27;20050;-39
2023/06/29 02:16:44;;;;;;;58.47;47.50;;;18.10;99.90;;;;;;5134831;27;20046;-40
2023/06/29 02:19:09;;;;;;;56.47;47.83;;;18.00;99.90;;;;;;5116327;27;20050;-39
2023/06/29 02:21:35;;;;;;;54.90;46.35;;;18.10;99.90;;;;;;5135052;27;20130;-40
2023/06/29 02:24:01;;;;;;;55.80;45.97;;;18.10;99.90;;;;;;5134939;27;20499;-39
2023/06/29 02:26:26;;;;;;;56.97;48.03;;;18.10;99.90;;;;;;5133217;27;20129;-40
2023/06/29 02:28:52;;;;;;;58.90;46.47;;;18.00;99.90;;;;;;5088501;27;20439;-39
2023/06/29 02:31:18;;;;;;;53.70;45.65;;;18.10;99.90;;;;;;5135608;27;20099;-40
2023/06/29 02:33:44;;;;;;;56.65;47.00;;;18.10;99.90;;;;;;5133439;27;20538;-39
2023/06/29 02:36:10;;;;;;;52.40;45.15;;;18.10;99.90;;;;;;5103115;27;20055;-39
2023/06/29 02:38:36;;;;;;;55.47;46.53;;;18.00;99.90;;;;;;5082226;28;20052;-39
2023/06/29 02:41:01;;;;;;;55.20;45.47;;;18.00;99.90;;;;;;5114661;27;20058;-39
2023/06/29 02:43:27;;;;;;;52.88;45.63;;;18.00;99.90;;;;;;5082051;27;20058;-39
2023/06/29 02:45:53;;;;;;;50.80;43.67;;;18.00;99.90;;;;;;5113497;27;20388;-39
2023/06/29 02:48:18;;;;;;;55.67;46.13;;;18.00;99.90;;;;;;5095755;27;20047;-39
2023/06/29 02:50:44;;;;;;;49.70;42.67;;;18.00;99.90;;;;;;5113911;27;20057;-39
2023/06/29 02:53:14;;;;;;;50.28;42.65;;;18.00;99.90;;;;;;5114551;27;20054;-39
2023/06/29 02:55:40;;;;;;;54.08;45.25;;;18.00;99.90;;;;;;5113856;27;20722;-39
2023/06/29 02:58:06;;;;;;;51.47;41.97;;;18.00;99.90;;;;;;5113903;27;20043;-39
2023/06/29 03:00:31;;;;;;;50.25;43.65;;;18.00;99.90;;;;;;5094509;28;20047;-39
2023/06/29 03:02:57;;;;;;;52.72;40.95;;;18.00;99.90;;;;;;5095212;27;20061;-39
2023/06/29 03:05:22;;;;;;;50.38;40.83;;;18.00;99.90;;;;;;5113569;27;20134;-40
2023/06/29 03:07:48;;;;;;;47.33;40.13;;;17.90;99.90;;;;;;5114068;27;20237;-39
2023/06/29 03:10:14;;;;;;;49.25;40.67;;;18.00;99.90;;;;;;5073992;28;20051;-39
2023/06/29 03:12:41;;;;;;;51.03;40.42;;;18.00;99.90;;;;;;5108233;27;20047;-39
2023/06/29 03:15:07;;;;;;;48.97;39.13;;;18.00;99.90;;;;;;5112874;27;20080;-39
2023/06/29 03:17:33;;;;;;;43.15;38.15;;;18.00;99.90;;;;;;5094513;27;20050;-39
2023/06/29 03:19:59;;;;;;;48.45;40.28;;;18.00;99.90;;;;;;5112334;27;20545;-39
2023/06/29 03:22:26;;;;;;;44.58;37.40;;;18.00;99.90;;;;;;5113269;27;20050;-39
2023/06/29 03:24:52;;;;;;;48.33;37.60;;;18.00;99.90;;;;;;5113251;27;20062;-39
2023/06/29 03:27:19;;;;;;;47.00;38.00;;;18.00;99.90;;;;;;5114121;27;20078;-39
2023/06/29 03:29:46;;;;;;;42.60;37.17;;;18.00;99.90;;;;;;5112986;27;20047;-39
2023/06/29 03:32:11;;;;;;;45.92;38.35;;;18.00;99.90;;;;;;5114234;27;20088;-39
2023/06/29 03:34:37;;;;;;;47.13;37.60;;;18.00;99.90;;;;;;5104638;27;20122;-40
2023/06/29 03:37:03;;;;;;;44.55;39.28;;;18.00;99.90;;;;;;5110175;27;20043;-39
2023/06/29 03:39:28;;;;;;;41.78;36.58;;;18.00;99.90;;;;;;5103517;27;20548;-39
2023/06/29 03:41:54;;;;;;;45.38;36.72;;;18.10;99.90;;;;;;5082558;27;20051;-39
2023/06/29 03:44:19;;;;;;;46.65;36.35;;;18.10;99.90;;;;;;5109614;27;20468;-39
2023/06/29 03:46:46;;;;;;;45.78;37.88;;;18.10;99.90;;;;;;5117128;27;20047;-39
2023/06/29 03:49:12;;;;;;;45.70;37.67;;;18.10;99.90;;;;;;5116907;27;20039;-39
2023/06/29 03:51:37;;;;;;;44.95;35.00;;;18.10;99.90;;;;;;5098789;27;20477;-40
2023/06/29 03:54:03;;;;;;;39.30;34.92;;;18.10;99.90;;;;;;5117616;27;20579;-39
2023/06/29 03:56:31;;;;;;;41.17;33.53;;;18.10;99.90;;;;;;5117170;27;20047;-39
2023/06/29 03:58:57;;;;;;;38.58;33.95;;;18.10;99.90;;;;;;5116032;27;20039;-39
2023/06/29 04:01:22;;;;;;;40.38;34.30;;;18.20;99.90;;;;;;5116405;27;20126;-39
2023/06/29 04:03:48;;;;;;;41.22;33.03;;;18.20;99.90;;;;;;5114487;27;20099;-39
2023/06/29 04:06:14;;;;;;;37.90;33.80;;;18.20;99.90;;;;;;5092873;27;20521;-40
2023/06/29 04:08:39;;;;;;;41.53;33.70;;;18.20;99.90;;;;;;5113775;27;20043;-39
2023/06/29 04:11:05;;;;;;;41.42;32.80;;;18.30;99.90;;;;;;5113879;27;20066;-39
2023/06/29 04:13:31;;;;;;;39.33;33.08;;;18.30;99.90;;;;;;5093962;27;20043;-39
2023/06/29 04:15:56;;;;;;;37.42;31.23;;;18.30;99.90;;;;;;5113780;27;20484;-39
2023/06/29 04:18:22;;;;;;;39.85;33.25;;;18.30;99.90;;;;;;5115518;27;20043;-40
2023/06/29 04:20:48;;;;;;;40.97;33.50;;;18.30;99.90;;;;;;5114889;27;20049;-39
2023/06/29 04:23:15;;;;;;;39.30;33.95;;;18.30;99.90;;;;;;5115833;27;20043;-39
2023/06/29 04:25:43;;;;;;;45.72;33.08;;;18.30;99.90;;;;;;5115149;27;20068;-40
2023/06/29 04:28:11;;;;;;;40.17;33.45;;;18.30;99.90;;;;;;5112606;27;20502;-40
2023/06/29 04:30:40;;;;;;;42.08;34.30;;;18.30;99.90;;;;;;5115287;27;20043;-40
2023/06/29 04:33:09;;;;;;;39.45;33.35;;;18.30;99.90;;;;;;5114348;27;20047;-40
2023/06/29 04:35:38;;;;;;;41.95;35.00;;;18.30;99.90;;;;;;5107966;27;20075;-40
2023/06/29 04:38:04;;;;;;;39.75;32.63;;;18.30;99.90;;;;;;5112702;27;20772;-39
2023/06/29 04:40:30;;;;;;;39.63;31.42;;;18.30;99.90;;;;;;5116082;27;20373;-39
2023/06/29 04:42:56;;;;;;;41.80;32.55;;;18.30;99.90;;;;;;5112579;27;20132;-39
2023/06/29 04:45:21;;;;;;;35.83;31.35;;;18.30;99.90;;;;;;5112777;27;20386;-39
2023/06/29 04:47:50;;;;;;;40.40;32.20;;;18.30;99.90;;;;;;5114853;27;20046;-39
2023/06/29 04:50:25;;;;;;;39.83;30.92;;;18.30;99.90;;;;;;5110378;27;20042;-40
2023/06/29 04:52:54;;;;;;;36.67;31.30;;;18.30;99.90;;;;;;5110130;27;20038;-40
2023/06/29 04:55:20;;;;;;;38.08;32.78;;;18.30;99.90;;;;;;5091742;27;20256;-39
2023/06/29 04:57:46;;;;;;;36.67;31.10;;;18.30;99.90;;;;;;5111806;27;20055;-40
2023/06/29 05:00:12;;;;;;;35.58;30.45;;;18.30;99.90;;;;;;5092653;27;20106;-39
2023/06/29 05:02:38;;;;;;;35.28;30.23;;;18.30;99.90;;;;;;5093927;27;20158;-39
2023/06/29 05:05:05;;;;;;;33.47;29.83;;;18.40;99.90;;;;;;5093329;27;20059;-40
2023/06/29 05:07:30;;;;;;;36.28;30.33;;;18.30;99.90;;;;;;5113221;27;20420;-39
2023/06/29 05:09:57;;;;;;;34.60;30.23;;;18.40;99.90;;;;;;5111818;27;20063;-40
2023/06/29 05:12:23;;;;;;;35.80;30.77;;;18.40;99.90;;;;;;5093048;27;20553;-40
2023/06/29 05:14:48;;;;;;;37.20;30.38;;;18.50;99.90;;;;;;5115099;27;20047;-39
2023/06/29 05:17:15;;;;;;;34.90;29.50;;;18.50;99.90;;;;;;5094386;27;20066;-39
2023/06/29 05:19:40;;;;;;;37.22;29.98;;;18.60;99.90;;;;;;5113035;27;20042;-39
2023/06/29 05:22:06;;;;;;;44.42;31.38;;;18.60;99.90;;;;;;5113667;27;20462;-40
2023/06/29 05:24:31;;;;;;;35.13;31.02;;;18.70;99.90;;;;;;5112450;27;20078;-40
2023/06/29 05:26:57;;;;;;;32.70;28.63;;;18.70;99.90;;;;;;5113913;27;20083;-40
2023/06/29 05:29:23;;;;;;;35.20;29.05;;;18.80;99.90;;;;;;5113576;27;20461;-40
2023/06/29 05:31:49;;;;;;;35.42;28.73;;;18.80;99.90;;;;;;5112605;27;20101;-39
2023/06/29 05:34:14;;;;;;;34.53;30.40;;;18.80;99.90;;;;;;5112118;27;20538;-40
2023/06/29 05:36:40;;;;;;;33.83;29.80;;;18.80;99.90;;;;;;5110812;27;20580;-40
2023/06/29 05:39:06;;;;;;;35.70;31.00;;;18.80;99.90;;;;;;5109750;27;20039;-40
2023/06/29 05:41:32;;;;;;;36.60;31.20;;;18.90;99.90;;;;;;5092825;27;20078;-39
2023/06/29 05:43:59;;;;;;;38.10;29.85;;;18.90;99.90;;;;;;5112087;27;20050;-40
2023/06/29 05:46:25;;;;;;;38.70;31.08;;;18.90;99.90;;;;;;5110430;27;20054;-40
2023/06/29 05:48:51;;;;;;;38.58;30.75;;;18.90;99.90;;;;;;5114653;27;20057;-40
2023/06/29 05:51:16;;;;;;;37.58;30.50;;;18.90;99.90;;;;;;5112788;27;20145;-40
2023/06/29 05:53:42;;;;;;;35.75;31.35;;;18.90;99.90;;;;;;5092428;27;20515;-39
2023/06/29 05:56:08;;;;;;;34.15;29.35;;;19.00;99.90;;;;;;5111482;27;20047;-40
2023/06/29 05:58:33;;;;;;;37.20;31.25;;;19.00;99.90;;;;;;5115003;27;20038;-40
2023/06/29 06:00:59;;;;;;;37.03;31.33;;;19.00;99.90;;;;;;5112887;27;20039;-40
2023/06/29 06:03:25;;;;;;;37.90;31.13;;;19.00;99.90;;;;;;5114387;27;20097;-40
2023/06/29 06:05:51;;;;;;;36.88;30.58;;;19.00;99.90;;;;;;5112782;27;20079;-39
2023/06/29 06:08:17;;;;;;;36.55;31.70;;;19.00;99.90;;;;;;5111916;27;20137;-40
2023/06/29 06:10:42;;;;;;;42.63;31.42;;;19.00;99.90;;;;;;5112983;27;20084;-40
2023/06/29 06:13:09;;;;;;;42.03;30.60;;;19.00;99.90;;;;;;5114372;27;20043;-39
2023/06/29 06:15:34;;;;;;;37.47;31.17;;;19.00;99.90;;;;;;5092051;27;20412;-40
2023/06/29 06:18:00;;;;;;;37.83;30.63;;;19.00;99.90;;;;;;5075058;27;20055;-40
2023/06/29 06:20:26;;;;;;;38.40;32.47;;;19.10;99.90;;;;;;5111379;27;20560;-40
2023/06/29 06:22:51;;;;;;;35.72;30.25;;;19.10;99.90;;;;;;5112082;27;20055;-39
2023/06/29 06:25:17;;;;;;;42.50;32.65;;;19.10;99.90;;;;;;5102737;27;20512;-40
2023/06/29 06:27:46;;;;;;;39.70;32.65;;;19.20;99.90;;;;;;5099175;27;20043;-40
2023/06/29 06:30:12;;;;;;;36.50;31.83;;;19.20;99.90;;;;;;5102395;27;20429;-40
2023/06/29 06:32:41;;;;;;;40.08;32.63;;;19.40;99.90;;;;;;5087888;27;20890;-42
2023/06/29 06:35:08;;;;;;;35.42;30.73;;;19.50;99.90;;;;;;5106699;27;20047;-40
2023/06/29 06:37:38;;;;;;;36.15;31.90;;;19.60;99.90;;;;;;5111021;27;20054;-40
2023/06/29 06:40:15;;;;;;;36.00;32.25;;;19.80;99.90;;;;;;5091114;27;20058;-40
2023/06/29 06:42:41;;;;;;;34.38;30.70;;;19.90;99.90;;;;;;5109318;27;20083;-40
2023/06/29 06:45:08;;;;;;;36.38;30.85;;;20.00;99.90;;;;;;5112238;27;20545;-40
2023/06/29 06:47:35;;;;;;;34.80;31.23;;;20.10;99.90;;;;;;5111710;27;20050;-40
2023/06/29 06:50:01;;;;;;;36.83;30.60;;;20.30;99.90;;;;;;5110762;27;20110;-39
2023/06/29 06:52:27;;;;;;;37.25;32.47;;;20.30;99.90;;;;;;5111233;27;20076;-40
2023/06/29 06:54:53;;;;;;;39.47;31.42;;;20.30;99.90;;;;;;5110495;27;20470;-40
2023/06/29 06:57:19;;;;;;;38.60;32.22;;;20.40;99.90;;;;;;5114122;27;20051;-40
2023/06/29 06:59:45;;;;;;;35.65;31.42;;;20.40;99.90;;;;;;5110244;27;20050;-40
2023/06/29 07:02:13;;;;;;;37.20;31.75;;;20.40;99.90;;;;;;5112357;27;20543;-40
2023/06/29 07:04:38;;;;;;;41.63;33.00;;;20.30;99.90;;;;;;5109706;27;20124;-40
2023/06/29 07:07:06;;;;;;;36.25;32.22;;;20.30;99.90;;;;;;5107355;27;20704;-40
2023/06/29 07:09:32;;;;;;;39.65;33.97;;;20.30;99.90;;;;;;5112073;27;20084;-40
2023/06/29 07:11:58;;;;;;;36.63;32.28;;;20.30;99.90;;;;;;5111348;27;20043;-41
2023/06/29 07:14:24;;;;;;;44.00;33.83;;;20.30;99.90;;;;;;5092764;27;20059;-40
2023/06/29 07:16:50;;;;;;;41.13;34.08;;;20.40;99.90;;;;;;5111582;27;20046;-40
2023/06/29 07:19:16;;;;;;;40.63;34.75;;;20.40;99.90;;;;;;5112331;27;20431;-41
2023/06/29 07:21:43;;;;;;;42.78;35.78;;;20.60;99.90;;;;;;5111756;27;20495;-42
2023/06/29 07:24:09;;;;;;;39.95;34.20;;;20.70;99.90;;;;;;5111741;27;20048;-40
2023/06/29 07:26:36;;;;;;;41.72;35.20;;;20.90;99.90;;;;;;5111636;27;20047;-40
2023/06/29 07:29:04;;;;;;;38.63;34.45;;;21.00;99.90;;;;;;5112546;27;20483;-40
2023/06/29 07:31:30;;;;;;;38.97;33.45;;;21.00;99.90;;;;;;5111740;27;20088;-40
2023/06/29 07:33:56;;;;;;;40.85;36.55;;;21.00;99.90;;;;;;5109062;27;20035;-40
2023/06/29 07:36:24;;;;;;;38.88;34.58;;;21.10;99.90;;;;;;5090558;27;20497;-40
2023/06/29 07:38:51;;;;;;;40.53;36.30;;;21.00;99.90;;;;;;5108686;27;20489;-40
2023/06/29 07:41:17;;;;;;;45.20;37.53;;;21.00;99.90;;;;;;5113803;27;20042;-40
2023/06/29 07:43:48;;;;;;;41.50;37.08;;;21.10;99.90;;;;;;5111079;27;20511;-40
2023/06/29 07:46:14;;;;;;;42.25;36.33;;;21.20;99.90;;;;;;5088721;28;20071;-40
2023/06/29 07:48:39;;;;;;;41.22;36.78;;;21.10;99.90;;;;;;5110662;27;20503;-40
2023/06/29 07:51:05;;;;;;;42.95;37.22;;;21.20;99.90;;;;;;5111957;27;20480;-41
2023/06/29 07:53:31;;;;;;;46.65;38.30;;;21.40;99.90;;;;;;5111729;27;20552;-40
2023/06/29 07:55:59;;;;;;;41.80;36.88;;;21.60;99.90;;;;;;5087618;28;20062;-40
2023/06/29 07:58:26;;;;;;;44.92;37.28;;;21.60;99.90;;;;;;5087952;27;20081;-41
2023/06/29 08:00:51;;;;;;;43.92;39.33;;;21.60;99.90;;;;;;5109911;27;20481;-41
2023/06/29 08:03:17;;;;;;;44.80;39.00;;;21.50;99.90;;;;;;5114100;27;20054;-40
2023/06/29 08:05:43;;;;;;;43.05;38.47;;;21.50;99.90;;;;;;5110212;27;20075;-40
2023/06/29 08:08:08;;;;;;;46.38;39.47;;;21.40;99.90;;;;;;5090983;28;20047;-40
2023/06/29 08:10:34;;;;;;;47.30;39.22;;;21.30;99.90;;;;;;5110239;27;20039;-40
2023/06/29 08:13:01;;;;;;;44.55;37.25;;;21.20;99.90;;;;;;5111796;27;20077;-40
2023/06/29 08:15:26;;;;;;;44.30;36.85;;;21.10;99.90;;;;;;5110115;27;20051;-40
2023/06/29 08:17:52;;;;;;;41.50;36.08;;;21.10;99.90;;;;;;5091292;28;20472;-40
2023/06/29 08:20:17;;;;;;;41.85;37.00;;;20.90;99.90;;;;;;5111099;27;20043;-40
2023/06/29 08:22:43;;;;;;;41.75;36.03;;;20.90;99.90;;;;;;5092782;27;20536;-40
2023/06/29 08:25:09;;;;;;;40.10;35.70;;;20.90;99.90;;;;;;5110084;27;20520;-40
2023/06/29 08:27:39;;;;;;;42.63;36.47;;;20.90;99.90;;;;;;5096129;27;20522;-41
2023/06/29 08:30:05;;;;;;;40.95;35.60;;;20.80;99.90;;;;;;5113009;27;20505;-40
2023/06/29 08:32:31;;;;;;;39.97;36.03;;;20.80;99.90;;;;;;5114962;27;20043;-40
2023/06/29 08:34:56;;;;;;;41.10;36.67;;;20.70;99.90;;;;;;5109115;27;20524;-40
2023/06/29 08:37:22;;;;;;;41.05;34.75;;;20.70;99.90;;;;;;5113547;27;20539;-41
2023/06/29 08:39:48;;;;;;;41.47;37.08;;;20.60;99.90;;;;;;5113029;27;20041;-40
2023/06/29 08:42:13;;;;;;;40.05;35.80;;;20.60;99.90;;;;;;5117449;27;20066;-40
2023/06/29 08:44:40;;;;;;;41.88;35.75;;;20.70;99.90;;;;;;5110376;27;20164;-41
2023/06/29 08:47:06;;;;;;;38.40;34.45;;;20.70;99.90;;;;;;5116951;27;20188;-40
2023/06/29 08:49:35;;;;;;;39.20;34.90;;;20.60;99.90;;;;;;5092690;27;20452;-40
2023/06/29 08:52:03;;;;;;;37.83;33.78;;;20.60;99.90;;;;;;5090100;28;20051;-40
2023/06/29 08:54:31;;;;;;;38.50;33.97;;;20.60;99.90;;;;;;5117425;27;20082;-40
2023/06/29 08:56:59;;;;;;;38.25;34.20;;;20.60;99.90;;;;;;5136448;27;20485;-40
2023/06/29 08:59:26;;;;;;;36.78;33.08;;;20.70;99.90;;;;;;5087109;27;20062;-40
2023/06/29 09:01:52;;;;;;;37.42;33.33;;;20.70;99.90;;;;;;5099915;27;20126;-40
2023/06/29 09:04:18;;;;;;;37.70;33.67;;;20.80;99.90;;;;;;5107655;27;20089;-40
2023/06/29 09:06:44;;;;;;;38.88;34.88;;;20.70;99.90;;;;;;5116527;27;20058;-40
2023/06/29 09:09:09;;;;;;;39.03;34.90;;;20.70;99.90;;;;;;5115656;27;20047;-41
2023/06/29 09:11:36;;;;;;;39.20;35.15;;;20.60;99.90;;;;;;5097602;27;20427;-40
2023/06/29 09:14:07;;;;;;;42.55;37.45;;;20.60;99.90;;;;;;5097170;27;20111;-40
2023/06/29 09:16:34;;;;;;;43.60;38.33;;;20.60;99.90;;;;;;5115705;27;20051;-39
2023/06/29 09:19:00;;;;;;;42.25;37.40;;;20.60;99.90;;;;;;5115368;27;20305;-40
2023/06/29 09:21:28;;;;;;;42.63;38.22;;;20.50;99.90;;;;;;5115247;27;20516;-40
2023/06/29 09:23:58;;;;;;;43.25;38.60;;;20.60;99.90;;;;;;5112866;27;20394;-40
2023/06/29 09:26:28;;;;;;;41.85;37.65;;;20.70;99.90;;;;;;5114767;27;20494;-40
2023/06/29 09:29:03;;;;;;;42.50;38.10;;;20.70;99.90;;;;;;5114346;27;20049;-40
2023/06/29 09:31:32;;;;;;;41.72;37.45;;;20.80;99.90;;;;;;5115458;27;20039;-40
2023/06/29 09:34:17;;;;;;;45.38;39.40;;;20.80;99.90;;;;;;5112255;27;20329;-40
2023/06/29 09:36:44;;;;;;;42.95;38.60;;;20.80;99.90;;;;;;5097536;27;20126;-41
2023/06/29 09:39:10;;;;;;;44.33;38.60;;;20.80;99.90;;;;;;5112051;27;20035;-40
2023/06/29 09:41:58;;;;;;;44.17;37.42;;;20.80;99.90;;;;;;5114716;27;20047;-40
2023/06/29 09:44:25;;;;;;;42.92;38.15;;;20.80;99.90;;;;;;5114551;27;20078;-40
2023/06/29 09:47:04;;;;;;;44.20;37.95;;;20.80;99.90;;;;;;5124598;27;20039;-40
2023/06/29 09:49:31;;;;;;;44.10;38.17;;;20.80;99.90;;;;;;5102845;27;20039;-40
2023/06/29 09:52:04;;;;;;;43.40;38.90;;;20.90;99.90;;;;;;5107168;27;20148;-40
2023/06/29 09:54:36;;;;;;;44.60;39.72;;;20.90;99.90;;;;;;5105067;27;20082;-40
2023/06/29 09:57:03;;;;;;;44.45;39.08;;;20.90;99.90;;;;;;5114425;27;20081;-40
2023/06/29 09:59:33;;;;;;;44.03;39.40;;;20.90;99.90;;;;;;5114337;27;20138;-40
2023/06/29 10:01:59;;;;;;;47.55;41.22;;;20.90;99.90;;;;;;5099664;27;20498;-42
2023/06/29 10:04:25;;;;;;;45.95;41.05;;;20.80;99.90;;;;;;5113988;27;20031;-40
2023/06/29 10:06:59;;;;;;;44.80;40.17;;;20.90;99.90;;;;;;5114316;27;20057;-40
2023/06/29 10:09:25;;;;;;;45.40;40.50;;;20.90;99.90;;;;;;5114109;27;20039;-40
2023/06/29 10:11:55;;;;;;;44.45;39.90;;;20.90;99.90;;;;;;5113199;27;20039;-40
2023/06/29 10:14:22;;;;;;;46.65;41.72;;;21.00;99.90;;;;;;5112885;27;20168;-40
2023/06/29 10:16:52;;;;;;;46.58;39.92;;;21.10;99.90;;;;;;5114509;27;20408;-40
2023/06/29 10:19:23;;;;;;;45.85;40.88;;;21.20;99.90;;;;;;5113740;27;20058;-40
2023/06/29 10:22:04;;;;;;;45.70;40.88;;;21.30;99.90;;;;;;5114469;27;20047;-40
2023/06/29 10:24:40;;;;;;;45.85;40.88;;;21.40;99.90;;;;;;5112084;27;20130;-40
2023/06/29 10:27:08;;;;;;;48.55;43.63;;;21.50;99.90;;;;;;5092628;27;20050;-40
2023/06/29 10:29:47;;;;;;;46.80;41.00;;;21.50;99.90;;;;;;5113656;27;20053;-40
2023/06/29 10:32:33;;;;;;;46.13;41.42;;;21.30;99.90;;;;;;5113810;27;20038;-40
2023/06/29 10:35:01;;;;;;;46.40;41.50;;;21.20;99.90;;;;;;5102516;27;20039;-40
2023/06/29 10:37:32;;;;;;;47.28;42.20;;;21.10;99.90;;;;;;5111095;27;20613;-40
2023/06/29 10:39:58;;;;;;;47.00;42.00;;;20.90;99.90;;;;;;5115343;27;20038;-40
2023/06/29 10:42:23;;;;;;;47.45;42.63;;;20.80;99.90;;;;;;5087800;27;20097;-41
2023/06/29 10:44:50;;;;;;;49.78;42.65;;;20.90;99.90;;;;;;5099163;27;20129;-40
2023/06/29 10:47:27;;;;;;;54.47;43.33;;;21.00;99.90;;;;;;5134051;27;20706;-40
2023/06/29 10:50:11;;;;;;;46.53;41.58;;;21.20;99.90;;;;;;5133567;27;20766;-40
2023/06/29 10:52:42;;;;;;;51.17;45.88;;;21.30;99.90;;;;;;5133783;27;20430;-41
2023/06/29 10:55:16;;;;;;;50.15;44.58;;;21.40;99.90;;;;;;5133717;27;20609;-41
2023/06/29 10:57:53;;;;;;;50.05;44.70;;;21.70;99.90;;;;;;5134473;27;20504;-40
2023/06/29 11:00:19;;;;;;;46.28;41.38;;;22.10;99.90;;;;;;5079273;27;20161;-40
2023/06/29 11:02:48;;;;;;;49.40;44.15;;;22.30;99.90;;;;;;5114245;27;20051;-41
2023/06/29 11:05:17;;;;;;;49.97;44.65;;;22.40;99.90;;;;;;5112829;27;20047;-41
2023/06/29 11:07:44;;;;;;;51.35;45.78;;;22.30;99.90;;;;;;5111984;27;20047;-40
2023/06/29 11:10:11;;;;;;;48.90;43.78;;;22.10;99.90;;;;;;5111689;27;20047;-40
2023/06/29 11:12:41;;;;;;;49.65;44.10;;;22.20;99.90;;;;;;5112279;27;20043;-40
2023/06/29 11:15:12;;;;;;;50.13;44.65;;;22.30;99.90;;;;;;5113213;27;20046;-40
2023/06/29 11:17:41;;;;;;;50.15;44.72;;;22.30;99.90;;;;;;5112939;27;20623;-41
2023/06/29 11:20:15;;;;;;;53.10;45.55;;;22.20;99.90;;;;;;5093370;28;20046;-40
2023/06/29 11:22:41;;;;;;;49.15;43.22;;;22.10;99.90;;;;;;5095193;27;20082;-40
2023/06/29 11:25:15;;;;;;;49.20;44.13;;;22.20;99.90;;;;;;5113028;27;20112;-40
2023/06/29 11:27:45;;;;;;;49.25;43.78;;;22.50;99.90;;;;;;5102418;27;20200;-40
2023/06/29 11:30:11;;;;;;;49.30;44.15;;;23.00;99.90;;;;;;5099606;27;20051;-41
2023/06/29 11:32:38;;;;;;;51.25;45.78;;;23.20;99.90;;;;;;5098275;27;20039;-40
2023/06/29 11:35:06;;;;;;;50.55;45.00;;;23.40;99.90;;;;;;5076449;28;20319;-42
2023/06/29 11:37:32;;;;;;;50.63;45.33;;;23.40;99.90;;;;;;5108612;27;20135;-40
2023/06/29 11:39:58;;;;;;;50.55;45.33;;;23.30;99.90;;;;;;5103877;27;20047;-40
2023/06/29 11:42:25;;;;;;;49.75;44.22;;;23.50;99.90;;;;;;5113345;27;20043;-40
2023/06/29 11:45:04;;;;;;;47.60;42.65;;;23.50;99.90;;;;;;5104304;27;20505;-41
2023/06/29 11:47:30;;;;;;;48.88;43.55;;;23.70;99.90;;;;;;5113213;28;20088;-41
2023/06/29 11:49:59;;;;;;;48.97;41.42;;;23.80;99.90;;;;;;5093910;28;20055;-41
2023/06/29 11:52:37;;;;;;;47.63;42.47;;;24.00;99.90;;;;;;5094659;28;20047;-41
2023/06/29 11:55:04;;;;;;;50.97;45.50;;;24.10;99.90;;;;;;5113222;27;20096;-41
2023/06/29 11:57:31;;;;;;;49.35;43.38;;;24.20;99.90;;;;;;5113854;27;20044;-41
2023/06/29 11:59:57;;;;;;;49.47;44.22;;;24.50;99.90;;;;;;5113592;27;20045;-41
2023/06/29 12:02:23;;;;;;;50.65;45.13;;;24.80;99.90;;;;;;5116027;27;20051;-42
2023/06/29 12:04:56;;;;;;;51.88;45.55;;;25.00;99.90;;;;;;5117098;27;20043;-41
2023/06/29 12:07:37;;;;;;;;;;;25.10;99.90;;;;;;5127063;27;20050;-41
2023/06/29 12:10:11;;;;;;;47.40;41.70;;;25.10;99.90;;;;;;5119056;27;20393;-41
2023/06/29 12:12:45;;;;;;;45.40;40.47;;;25.10;99.90;;;;;;5113365;27;20078;-41
2023/06/29 12:15:25;;;;;;;47.67;42.38;;;25.10;99.90;;;;;;5097123;27;20051;-43
2023/06/29 12:17:53;;;;;;;46.70;41.47;;;25.00;99.90;;;;;;5116711;27;20194;-41
2023/06/29 12:20:24;;;;;;;49.30;44.25;;;24.90;99.90;;;;;;5118023;27;20046;-41
2023/06/29 12:22:55;;;;;;;46.67;41.63;;;24.90;99.90;;;;;;5117602;27;20057;-41
2023/06/29 12:25:22;;;;;;;49.15;42.88;;;25.00;99.90;;;;;;5116667;27;20047;-41
2023/06/29 12:27:49;;;;;;;48.90;42.17;;;24.90;99.90;;;;;;5098869;27;20102;-42
2023/06/29 12:30:20;;;;;;;47.45;42.05;;;25.00;99.90;;;;;;5115951;27;20051;-41